Search for airport 
image banner adimage banner adimage banner ad
image banner ad

63IA - Davis County Hospital

Located in Bloomfield, United States

ICAO - 63IA, IATA -

Data provided by Airmate  

General information

Coordinates: N40°45'34" W92°24'54"
Elevation is 890 feet MSL.
Magnetic variation is 02° East
View others Airports in Iowa

Operational data

Special qualification required
Current time UTC:
Current local time:
Weather at : KOTM - Ottumwa Rgnl ( 39 km )
METAR: KOTM 150853Z AUTO 00000KT 10SM CLR 12/11 A3007 RMK AO2 SLP176 T01220106 53005
TAF: KOTM 150520Z 1506/1606 26003KT P6SM SKC
View NOTAMs / SUP AIP / TFR affecting this airport [VIEW]
Communications frequencies: [VIEW]

Runways:

Airport contact information

Address: Bloomfield United States

Satellite view of 63IA